sensor_id;sensor_type;location;lat;lon;timestamp;P1;durP1;ratioP1;P2;durP2;ratioP2
20743;SDS011;56303;52.160;-0.428;2023-03-12T00:01:19;21.20;;;17.20;;
20743;SDS011;56303;52.160;-0.428;2023-03-12T00:03:48;21.03;;;18.20;;
20743;SDS011;56303;52.160;-0.428;2023-03-12T00:06:16;20.47;;;18.27;;
20743;SDS011;56303;52.160;-0.428;2023-03-12T00:08:43;20.87;;;16.87;;
20743;SDS011;56303;52.160;-0.428;2023-03-12T00:11:11;20.87;;;17.83;;
20743;SDS011;56303;52.160;-0.428;2023-03-12T00:13:40;30.23;;;21.17;;
20743;SDS011;56303;52.160;-0.428;2023-03-12T00:16:11;19.57;;;17.03;;
20743;SDS011;56303;52.160;-0.428;2023-03-12T00:18:39;20.40;;;17.17;;
20743;SDS011;56303;52.160;-0.428;2023-03-12T00:21:07;18.70;;;15.20;;
20743;SDS011;56303;52.160;-0.428;2023-03-12T00:23:34;20.67;;;16.97;;
20743;SDS011;56303;52.160;-0.428;2023-03-12T00:26:08;19.50;;;16.07;;
20743;SDS011;56303;52.160;-0.428;2023-03-12T00:28:37;20.90;;;16.30;;
20743;SDS011;56303;52.160;-0.428;2023-03-12T00:31:15;19.70;;;16.17;;
20743;SDS011;56303;52.160;-0.428;2023-03-12T00:33:42;20.60;;;17.53;;
20743;SDS011;56303;52.160;-0.428;2023-03-12T00:36:09;19.60;;;15.80;;
20743;SDS011;56303;52.160;-0.428;2023-03-12T00:38:36;18.83;;;15.37;;
20743;SDS011;56303;52.160;-0.428;2023-03-12T00:41:03;14.87;;;12.77;;
20743;SDS011;56303;52.160;-0.428;2023-03-12T00:43:30;17.87;;;14.20;;
20743;SDS011;56303;52.160;-0.428;2023-03-12T00:45:56;15.93;;;12.40;;
20743;SDS011;56303;52.160;-0.428;2023-03-12T00:48:23;15.73;;;13.47;;
20743;SDS011;56303;52.160;-0.428;2023-03-12T00:50:50;18.10;;;14.40;;
20743;SDS011;56303;52.160;-0.428;2023-03-12T00:53:17;16.03;;;12.90;;
20743;SDS011;56303;52.160;-0.428;2023-03-12T00:55:44;17.23;;;13.83;;
20743;SDS011;56303;52.160;-0.428;2023-03-12T00:58:11;15.47;;;12.60;;
20743;SDS011;56303;52.160;-0.428;2023-03-12T01:00:38;16.03;;;11.70;;
20743;SDS011;56303;52.160;-0.428;2023-03-12T01:03:04;19.33;;;14.30;;
20743;SDS011;56303;52.160;-0.428;2023-03-12T01:05:31;15.27;;;12.63;;
20743;SDS011;56303;52.160;-0.428;2023-03-12T01:08:03;17.17;;;13.27;;
20743;SDS011;56303;52.160;-0.428;2023-03-12T01:10:30;15.77;;;12.33;;
20743;SDS011;56303;52.160;-0.428;2023-03-12T01:12:57;19.17;;;12.77;;
20743;SDS011;56303;52.160;-0.428;2023-03-12T01:15:24;16.43;;;13.40;;
20743;SDS011;56303;52.160;-0.428;2023-03-12T01:17:51;17.77;;;13.27;;
20743;SDS011;56303;52.160;-0.428;2023-03-12T01:20:18;17.27;;;12.97;;
20743;SDS011;56303;52.160;-0.428;2023-03-12T01:22:45;18.03;;;13.50;;
20743;SDS011;56303;52.160;-0.428;2023-03-12T01:25:11;21.10;;;14.03;;
20743;SDS011;56303;52.160;-0.428;2023-03-12T01:27:38;18.70;;;14.53;;
20743;SDS011;56303;52.160;-0.428;2023-03-12T01:30:05;20.77;;;13.23;;
20743;SDS011;56303;52.160;-0.428;2023-03-12T01:32:32;20.13;;;12.90;;
20743;SDS011;56303;52.160;-0.428;2023-03-12T01:34:59;18.77;;;13.70;;
20743;SDS011;56303;52.160;-0.428;2023-03-12T01:37:26;19.47;;;13.57;;
20743;SDS011;56303;52.160;-0.428;2023-03-12T01:39:53;18.17;;;12.53;;
20743;SDS011;56303;52.160;-0.428;2023-03-12T01:42:20;20.57;;;13.53;;
20743;SDS011;56303;52.160;-0.428;2023-03-12T01:44:51;20.33;;;14.47;;
20743;SDS011;56303;52.160;-0.428;2023-03-12T01:47:20;21.03;;;13.80;;
20743;SDS011;56303;52.160;-0.428;2023-03-12T01:49:47;22.50;;;13.77;;
20743;SDS011;56303;52.160;-0.428;2023-03-12T01:52:18;19.00;;;13.60;;
20743;SDS011;56303;52.160;-0.428;2023-03-12T02:00:17;19.17;;;13.00;;
20743;SDS011;56303;52.160;-0.428;2023-03-12T02:02:46;17.53;;;11.27;;
20743;SDS011;56303;52.160;-0.428;2023-03-12T02:07:54;19.70;;;11.87;;
20743;SDS011;56303;52.160;-0.428;2023-03-12T02:10:22;20.47;;;11.40;;
20743;SDS011;56303;52.160;-0.428;2023-03-12T02:12:50;17.97;;;11.63;;
20743;SDS011;56303;52.160;-0.428;2023-03-12T02:15:18;17.70;;;11.50;;
20743;SDS011;56303;52.160;-0.428;2023-03-12T02:17:45;21.50;;;11.80;;
20743;SDS011;56303;52.160;-0.428;2023-03-12T02:22:48;19.90;;;10.73;;
20743;SDS011;56303;52.160;-0.428;2023-03-12T02:25:25;18.53;;;10.77;;
20743;SDS011;56303;52.160;-0.428;2023-03-12T02:28:04;17.27;;;10.90;;
20743;SDS011;56303;52.160;-0.428;2023-03-12T02:30:33;17.67;;;11.97;;
20743;SDS011;56303;52.160;-0.428;2023-03-12T02:33:04;17.60;;;11.40;;
20743;SDS011;56303;52.160;-0.428;2023-03-12T02:35:33;20.50;;;10.90;;
20743;SDS011;56303;52.160;-0.428;2023-03-12T02:38:01;18.53;;;11.57;;
20743;SDS011;56303;52.160;-0.428;2023-03-12T02:40:38;19.53;;;11.27;;
20743;SDS011;56303;52.160;-0.428;2023-03-12T02:43:09;20.23;;;11.00;;
20743;SDS011;56303;52.160;-0.428;2023-03-12T02:45:36;18.07;;;12.30;;
20743;SDS011;56303;52.160;-0.428;2023-03-12T02:48:04;21.33;;;10.47;;
20743;SDS011;56303;52.160;-0.428;2023-03-12T02:50:34;23.77;;;10.00;;
20743;SDS011;56303;52.160;-0.428;2023-03-12T02:53:01;22.30;;;10.20;;
20743;SDS011;56303;52.160;-0.428;2023-03-12T02:55:27;22.30;;;10.67;;
20743;SDS011;56303;52.160;-0.428;2023-03-12T02:57:54;24.77;;;10.87;;
20743;SDS011;56303;52.160;-0.428;2023-03-12T03:00:21;20.70;;;9.97;;
20743;SDS011;56303;52.160;-0.428;2023-03-12T03:02:48;21.03;;;10.53;;
20743;SDS011;56303;52.160;-0.428;2023-03-12T03:05:15;18.97;;;9.50;;
20743;SDS011;56303;52.160;-0.428;2023-03-12T03:07:42;20.17;;;9.30;;
20743;SDS011;56303;52.160;-0.428;2023-03-12T03:10:09;24.83;;;10.33;;
20743;SDS011;56303;52.160;-0.428;2023-03-12T03:12:36;21.50;;;10.60;;
20743;SDS011;56303;52.160;-0.428;2023-03-12T03:15:03;19.33;;;9.63;;
20743;SDS011;56303;52.160;-0.428;2023-03-12T03:17:30;19.07;;;9.70;;
20743;SDS011;56303;52.160;-0.428;2023-03-12T03:19:57;19.27;;;9.20;;
20743;SDS011;56303;52.160;-0.428;2023-03-12T03:22:24;19.03;;;8.67;;
20743;SDS011;56303;52.160;-0.428;2023-03-12T03:24:51;22.03;;;10.03;;
20743;SDS011;56303;52.160;-0.428;2023-03-12T03:27:19;23.60;;;9.20;;
20743;SDS011;56303;52.160;-0.428;2023-03-12T03:29:45;19.50;;;8.77;;
20743;SDS011;56303;52.160;-0.428;2023-03-12T03:32:12;25.63;;;9.73;;
20743;SDS011;56303;52.160;-0.428;2023-03-12T03:34:39;21.63;;;8.80;;
20743;SDS011;56303;52.160;-0.428;2023-03-12T03:37:06;22.73;;;9.43;;
20743;SDS011;56303;52.160;-0.428;2023-03-12T03:39:33;21.60;;;9.80;;
20743;SDS011;56303;52.160;-0.428;2023-03-12T03:42:00;21.53;;;8.37;;
20743;SDS011;56303;52.160;-0.428;2023-03-12T03:44:26;29.43;;;9.67;;
20743;SDS011;56303;52.160;-0.428;2023-03-12T03:46:53;22.87;;;8.30;;
20743;SDS011;56303;52.160;-0.428;2023-03-12T03:49:20;21.27;;;8.23;;
20743;SDS011;56303;52.160;-0.428;2023-03-12T03:51:48;25.90;;;8.80;;
20743;SDS011;56303;52.160;-0.428;2023-03-12T03:54:17;21.43;;;7.77;;
20743;SDS011;56303;52.160;-0.428;2023-03-12T03:56:44;27.30;;;8.63;;
20743;SDS011;56303;52.160;-0.428;2023-03-12T03:59:11;22.77;;;7.80;;
20743;SDS011;56303;52.160;-0.428;2023-03-12T04:01:38;19.90;;;7.33;;
20743;SDS011;56303;52.160;-0.428;2023-03-12T04:04:05;24.77;;;9.37;;
20743;SDS011;56303;52.160;-0.428;2023-03-12T04:06:31;19.73;;;8.50;;
20743;SDS011;56303;52.160;-0.428;2023-03-12T04:08:59;21.67;;;8.70;;
20743;SDS011;56303;52.160;-0.428;2023-03-12T04:11:26;28.23;;;8.87;;
20743;SDS011;56303;52.160;-0.428;2023-03-12T04:13:53;20.90;;;8.17;;
20743;SDS011;56303;52.160;-0.428;2023-03-12T04:16:20;25.13;;;7.43;;
20743;SDS011;56303;52.160;-0.428;2023-03-12T04:18:46;24.67;;;8.80;;
20743;SDS011;56303;52.160;-0.428;2023-03-12T04:21:13;21.33;;;7.57;;
20743;SDS011;56303;52.160;-0.428;2023-03-12T04:23:40;20.53;;;7.70;;
20743;SDS011;56303;52.160;-0.428;2023-03-12T04:26:07;21.27;;;7.57;;
20743;SDS011;56303;52.160;-0.428;2023-03-12T04:28:34;26.63;;;9.37;;
20743;SDS011;56303;52.160;-0.428;2023-03-12T04:31:03;27.30;;;8.97;;
20743;SDS011;56303;52.160;-0.428;2023-03-12T04:33:32;20.83;;;7.70;;
20743;SDS011;56303;52.160;-0.428;2023-03-12T04:36:01;21.63;;;8.67;;
20743;SDS011;56303;52.160;-0.428;2023-03-12T04:38:29;21.57;;;7.80;;
20743;SDS011;56303;52.160;-0.428;2023-03-12T04:40:57;26.83;;;9.50;;
20743;SDS011;56303;52.160;-0.428;2023-03-12T04:43:32;21.37;;;7.93;;
20743;SDS011;56303;52.160;-0.428;2023-03-12T04:46:00;22.87;;;8.70;;
20743;SDS011;56303;52.160;-0.428;2023-03-12T04:48:27;20.97;;;8.77;;
20743;SDS011;56303;52.160;-0.428;2023-03-12T04:50:54;22.63;;;7.77;;
20743;SDS011;56303;52.160;-0.428;2023-03-12T04:53:22;24.43;;;8.77;;
20743;SDS011;56303;52.160;-0.428;2023-03-12T04:55:49;19.87;;;8.03;;
20743;SDS011;56303;52.160;-0.428;2023-03-12T04:58:17;26.00;;;8.47;;
20743;SDS011;56303;52.160;-0.428;2023-03-12T05:00:44;26.93;;;8.57;;
20743;SDS011;56303;52.160;-0.428;2023-03-12T05:03:13;27.83;;;8.97;;
20743;SDS011;56303;52.160;-0.428;2023-03-12T05:05:40;28.43;;;9.10;;
20743;SDS011;56303;52.160;-0.428;2023-03-12T05:08:06;23.70;;;7.97;;
20743;SDS011;56303;52.160;-0.428;2023-03-12T05:10:33;22.73;;;7.80;;
20743;SDS011;56303;52.160;-0.428;2023-03-12T05:13:01;25.37;;;9.13;;
20743;SDS011;56303;52.160;-0.428;2023-03-12T05:15:27;24.83;;;8.53;;
20743;SDS011;56303;52.160;-0.428;2023-03-12T05:17:54;22.00;;;7.77;;
20743;SDS011;56303;52.160;-0.428;2023-03-12T05:20:21;26.63;;;7.87;;
20743;SDS011;56303;52.160;-0.428;2023-03-12T05:22:48;24.03;;;7.50;;
20743;SDS011;56303;52.160;-0.428;2023-03-12T05:25:14;21.43;;;7.67;;
20743;SDS011;56303;52.160;-0.428;2023-03-12T05:27:41;16.63;;;7.70;;
20743;SDS011;56303;52.160;-0.428;2023-03-12T05:30:08;22.77;;;7.03;;
20743;SDS011;56303;52.160;-0.428;2023-03-12T05:32:36;24.47;;;7.70;;
20743;SDS011;56303;52.160;-0.428;2023-03-12T05:35:04;23.00;;;8.63;;
20743;SDS011;56303;52.160;-0.428;2023-03-12T05:37:31;24.53;;;7.30;;
20743;SDS011;56303;52.160;-0.428;2023-03-12T05:39:57;23.30;;;6.53;;
20743;SDS011;56303;52.160;-0.428;2023-03-12T05:42:25;27.47;;;7.40;;
20743;SDS011;56303;52.160;-0.428;2023-03-12T05:44:52;24.53;;;7.53;;
20743;SDS011;56303;52.160;-0.428;2023-03-12T05:47:19;19.70;;;6.70;;
20743;SDS011;56303;52.160;-0.428;2023-03-12T05:49:46;19.63;;;5.97;;
20743;SDS011;56303;52.160;-0.428;2023-03-12T05:52:13;23.27;;;7.33;;
20743;SDS011;56303;52.160;-0.428;2023-03-12T05:54:40;25.70;;;7.37;;
20743;SDS011;56303;52.160;-0.428;2023-03-12T05:57:07;23.33;;;7.27;;
20743;SDS011;56303;52.160;-0.428;2023-03-12T05:59:33;16.53;;;6.00;;
20743;SDS011;56303;52.160;-0.428;2023-03-12T06:02:00;22.53;;;6.20;;
20743;SDS011;56303;52.160;-0.428;2023-03-12T06:04:28;27.20;;;8.07;;
20743;SDS011;56303;52.160;-0.428;2023-03-12T06:06:54;30.20;;;8.37;;
20743;SDS011;56303;52.160;-0.428;2023-03-12T06:09:21;29.43;;;7.90;;
20743;SDS011;56303;52.160;-0.428;2023-03-12T06:11:48;28.47;;;8.43;;
20743;SDS011;56303;52.160;-0.428;2023-03-12T06:14:15;29.70;;;7.73;;
20743;SDS011;56303;52.160;-0.428;2023-03-12T06:16:42;31.03;;;8.47;;
20743;SDS011;56303;52.160;-0.428;2023-03-12T06:19:09;30.00;;;10.03;;
20743;SDS011;56303;52.160;-0.428;2023-03-12T06:21:39;36.83;;;9.33;;
20743;SDS011;56303;52.160;-0.428;2023-03-12T06:24:08;31.60;;;9.13;;
20743;SDS011;56303;52.160;-0.428;2023-03-12T06:26:35;34.40;;;9.00;;
20743;SDS011;56303;52.160;-0.428;2023-03-12T06:29:02;32.07;;;10.23;;
20743;SDS011;56303;52.160;-0.428;2023-03-12T06:31:29;32.00;;;10.10;;
20743;SDS011;56303;52.160;-0.428;2023-03-12T06:33:56;33.87;;;9.40;;
20743;SDS011;56303;52.160;-0.428;2023-03-12T06:36:23;31.87;;;10.50;;
20743;SDS011;56303;52.160;-0.428;2023-03-12T06:38:50;38.00;;;10.67;;
20743;SDS011;56303;52.160;-0.428;2023-03-12T06:41:17;32.63;;;10.53;;
20743;SDS011;56303;52.160;-0.428;2023-03-12T06:43:46;36.80;;;11.17;;
20743;SDS011;56303;52.160;-0.428;2023-03-12T06:46:14;26.27;;;9.73;;
20743;SDS011;56303;52.160;-0.428;2023-03-12T06:48:43;35.17;;;12.07;;
20743;SDS011;56303;52.160;-0.428;2023-03-12T06:51:12;35.70;;;10.40;;
20743;SDS011;56303;52.160;-0.428;2023-03-12T06:53:41;30.40;;;11.70;;
20743;SDS011;56303;52.160;-0.428;2023-03-12T06:56:08;36.80;;;10.77;;
20743;SDS011;56303;52.160;-0.428;2023-03-12T06:58:36;33.17;;;11.27;;
20743;SDS011;56303;52.160;-0.428;2023-03-12T07:01:03;41.90;;;12.13;;
20743;SDS011;56303;52.160;-0.428;2023-03-12T07:03:30;33.63;;;11.03;;
20743;SDS011;56303;52.160;-0.428;2023-03-12T07:05:58;30.77;;;12.23;;
20743;SDS011;56303;52.160;-0.428;2023-03-12T07:08:26;30.70;;;9.77;;
20743;SDS011;56303;52.160;-0.428;2023-03-12T07:10:56;31.93;;;11.07;;
20743;SDS011;56303;52.160;-0.428;2023-03-12T07:13:27;34.20;;;10.97;;
20743;SDS011;56303;52.160;-0.428;2023-03-12T07:15:54;32.53;;;12.13;;
20743;SDS011;56303;52.160;-0.428;2023-03-12T07:18:21;28.90;;;10.37;;
20743;SDS011;56303;52.160;-0.428;2023-03-12T07:20:48;37.17;;;11.43;;
20743;SDS011;56303;52.160;-0.428;2023-03-12T07:23:14;33.33;;;9.60;;
20743;SDS011;56303;52.160;-0.428;2023-03-12T07:25:41;29.73;;;9.70;;
20743;SDS011;56303;52.160;-0.428;2023-03-12T07:28:10;32.30;;;10.20;;
20743;SDS011;56303;52.160;-0.428;2023-03-12T07:30:37;35.57;;;10.93;;
20743;SDS011;56303;52.160;-0.428;2023-03-12T07:33:09;37.13;;;10.80;;
20743;SDS011;56303;52.160;-0.428;2023-03-12T07:35:37;31.83;;;10.73;;
20743;SDS011;56303;52.160;-0.428;2023-03-12T07:38:05;33.77;;;10.47;;
20743;SDS011;56303;52.160;-0.428;2023-03-12T07:40:33;32.50;;;10.70;;
20743;SDS011;56303;52.160;-0.428;2023-03-12T07:43:01;33.23;;;10.13;;
20743;SDS011;56303;52.160;-0.428;2023-03-12T07:45:31;32.97;;;11.23;;
20743;SDS011;56303;52.160;-0.428;2023-03-12T07:47:58;30.00;;;9.60;;
20743;SDS011;56303;52.160;-0.428;2023-03-12T07:50:25;31.60;;;10.07;;
20743;SDS011;56303;52.160;-0.428;2023-03-12T07:52:52;34.57;;;11.27;;
20743;SDS011;56303;52.160;-0.428;2023-03-12T07:55:19;38.83;;;10.53;;
20743;SDS011;56303;52.160;-0.428;2023-03-12T07:57:45;32.03;;;11.17;;
20743;SDS011;56303;52.160;-0.428;2023-03-12T08:00:12;35.30;;;10.40;;
20743;SDS011;56303;52.160;-0.428;2023-03-12T08:02:40;34.07;;;9.63;;
20743;SDS011;56303;52.160;-0.428;2023-03-12T08:05:07;43.23;;;11.70;;
20743;SDS011;56303;52.160;-0.428;2023-03-12T08:07:34;28.53;;;9.00;;
20743;SDS011;56303;52.160;-0.428;2023-03-12T08:10:03;32.70;;;9.90;;
20743;SDS011;56303;52.160;-0.428;2023-03-12T08:12:32;27.67;;;10.30;;
20743;SDS011;56303;52.160;-0.428;2023-03-12T08:14:59;24.60;;;8.73;;
20743;SDS011;56303;52.160;-0.428;2023-03-12T08:17:26;35.27;;;10.50;;
20743;SDS011;56303;52.160;-0.428;2023-03-12T08:19:54;28.50;;;8.67;;
20743;SDS011;56303;52.160;-0.428;2023-03-12T08:22:22;34.07;;;9.90;;
20743;SDS011;56303;52.160;-0.428;2023-03-12T08:24:49;24.53;;;8.57;;
20743;SDS011;56303;52.160;-0.428;2023-03-12T08:27:16;30.53;;;8.83;;
20743;SDS011;56303;52.160;-0.428;2023-03-12T08:29:43;30.33;;;9.10;;
20743;SDS011;56303;52.160;-0.428;2023-03-12T08:32:09;34.03;;;9.73;;
20743;SDS011;56303;52.160;-0.428;2023-03-12T08:34:36;26.63;;;9.27;;
20743;SDS011;56303;52.160;-0.428;2023-03-12T08:37:03;30.17;;;8.90;;
20743;SDS011;56303;52.160;-0.428;2023-03-12T08:39:31;31.40;;;9.90;;
20743;SDS011;56303;52.160;-0.428;2023-03-12T08:41:58;29.90;;;8.33;;
20743;SDS011;56303;52.160;-0.428;2023-03-12T08:44:26;31.67;;;9.53;;
20743;SDS011;56303;52.160;-0.428;2023-03-12T08:46:52;21.27;;;7.10;;
20743;SDS011;56303;52.160;-0.428;2023-03-12T08:49:20;26.83;;;8.63;;
20743;SDS011;56303;52.160;-0.428;2023-03-12T08:51:47;33.27;;;9.63;;
20743;SDS011;56303;52.160;-0.428;2023-03-12T08:54:14;27.17;;;8.13;;
20743;SDS011;56303;52.160;-0.428;2023-03-12T08:56:41;27.77;;;7.80;;
20743;SDS011;56303;52.160;-0.428;2023-03-12T08:59:12;27.57;;;8.03;;
20743;SDS011;56303;52.160;-0.428;2023-03-12T09:01:39;24.67;;;7.43;;
20743;SDS011;56303;52.160;-0.428;2023-03-12T09:04:09;28.43;;;7.93;;
20743;SDS011;56303;52.160;-0.428;2023-03-12T09:06:36;25.50;;;7.30;;
20743;SDS011;56303;52.160;-0.428;2023-03-12T09:09:03;25.10;;;7.60;;
20743;SDS011;56303;52.160;-0.428;2023-03-12T09:11:31;32.83;;;8.30;;
20743;SDS011;56303;52.160;-0.428;2023-03-12T09:13:59;30.40;;;8.10;;
20743;SDS011;56303;52.160;-0.428;2023-03-12T09:16:47;26.13;;;7.07;;
20743;SDS011;56303;52.160;-0.428;2023-03-12T09:19:14;27.43;;;8.60;;
20743;SDS011;56303;52.160;-0.428;2023-03-12T09:21:41;20.07;;;6.70;;
20743;SDS011;56303;52.160;-0.428;2023-03-12T09:24:08;27.20;;;8.60;;
20743;SDS011;56303;52.160;-0.428;2023-03-12T09:26:36;25.33;;;9.40;;
20743;SDS011;56303;52.160;-0.428;2023-03-12T09:29:03;26.47;;;8.67;;
20743;SDS011;56303;52.160;-0.428;2023-03-12T09:31:30;29.13;;;7.50;;
20743;SDS011;56303;52.160;-0.428;2023-03-12T09:33:57;32.70;;;8.40;;
20743;SDS011;56303;52.160;-0.428;2023-03-12T09:36:24;26.50;;;8.93;;
20743;SDS011;56303;52.160;-0.428;2023-03-12T09:38:51;29.37;;;8.40;;
20743;SDS011;56303;52.160;-0.428;2023-03-12T09:41:22;20.23;;;6.77;;
20743;SDS011;56303;52.160;-0.428;2023-03-12T09:46:37;25.37;;;7.50;;
20743;SDS011;56303;52.160;-0.428;2023-03-12T09:49:17;20.50;;;7.57;;
20743;SDS011;56303;52.160;-0.428;2023-03-12T09:51:52;28.37;;;7.93;;
20743;SDS011;56303;52.160;-0.428;2023-03-12T09:54:43;16.30;;;5.93;;
20743;SDS011;56303;52.160;-0.428;2023-03-12T09:57:24;27.00;;;6.90;;
20743;SDS011;56303;52.160;-0.428;2023-03-12T09:59:52;17.93;;;6.00;;
20743;SDS011;56303;52.160;-0.428;2023-03-12T10:05:04;21.47;;;7.23;;
20743;SDS011;56303;52.160;-0.428;2023-03-12T10:07:40;19.50;;;6.83;;
20743;SDS011;56303;52.160;-0.428;2023-03-12T10:13:12;22.00;;;6.03;;
20743;SDS011;56303;52.160;-0.428;2023-03-12T10:26:39;22.90;;;6.80;;
20743;SDS011;56303;52.160;-0.428;2023-03-12T10:34:37;26.27;;;7.30;;
20743;SDS011;56303;52.160;-0.428;2023-03-12T10:37:17;20.60;;;6.37;;
20743;SDS011;56303;52.160;-0.428;2023-03-12T10:40:02;19.80;;;6.50;;
20743;SDS011;56303;52.160;-0.428;2023-03-12T10:42:31;20.50;;;7.00;;
20743;SDS011;56303;52.160;-0.428;2023-03-12T10:44:59;20.00;;;7.20;;
20743;SDS011;56303;52.160;-0.428;2023-03-12T10:47:42;19.60;;;6.47;;
20743;SDS011;56303;52.160;-0.428;2023-03-12T10:52:45;22.73;;;6.40;;
20743;SDS011;56303;52.160;-0.428;2023-03-12T10:55:27;27.47;;;6.97;;
20743;SDS011;56303;52.160;-0.428;2023-03-12T10:57:55;23.70;;;6.53;;
20743;SDS011;56303;52.160;-0.428;2023-03-12T11:00:26;19.83;;;6.77;;
20743;SDS011;56303;52.160;-0.428;2023-03-12T11:02:59;16.03;;;5.97;;
20743;SDS011;56303;52.160;-0.428;2023-03-12T11:05:30;20.47;;;6.63;;
20743;SDS011;56303;52.160;-0.428;2023-03-12T11:07:57;22.17;;;7.17;;
20743;SDS011;56303;52.160;-0.428;2023-03-12T11:10:43;20.80;;;7.13;;
20743;SDS011;56303;52.160;-0.428;2023-03-12T11:13:44;18.47;;;6.90;;
20743;SDS011;56303;52.160;-0.428;2023-03-12T11:18:54;16.90;;;5.30;;
20743;SDS011;56303;52.160;-0.428;2023-03-12T11:21:30;23.23;;;7.60;;
20743;SDS011;56303;52.160;-0.428;2023-03-12T11:31:59;21.10;;;6.10;;
20743;SDS011;56303;52.160;-0.428;2023-03-12T11:34:40;20.03;;;6.60;;
20743;SDS011;56303;52.160;-0.428;2023-03-12T11:45:25;20.10;;;6.37;;
20743;SDS011;56303;52.160;-0.428;2023-03-12T11:53:29;19.20;;;6.57;;
20743;SDS011;56303;52.160;-0.428;2023-03-12T12:01:42;19.47;;;6.90;;
20743;SDS011;56303;52.160;-0.428;2023-03-12T12:04:41;18.60;;;6.97;;
20743;SDS011;56303;52.160;-0.428;2023-03-12T12:18:38;19.07;;;6.90;;
20743;SDS011;56303;52.160;-0.428;2023-03-12T12:26:45;17.27;;;5.30;;
20743;SDS011;56303;52.160;-0.428;2023-03-12T12:29:34;14.70;;;4.70;;
20743;SDS011;56303;52.160;-0.428;2023-03-12T12:32:26;15.73;;;5.20;;
20743;SDS011;56303;52.160;-0.428;2023-03-12T12:35:03;16.17;;;5.80;;
20743;SDS011;56303;52.160;-0.428;2023-03-12T12:37:55;17.50;;;5.53;;
20743;SDS011;56303;52.160;-0.428;2023-03-12T12:40:29;14.20;;;4.70;;
20743;SDS011;56303;52.160;-0.428;2023-03-12T12:45:44;16.77;;;5.70;;
20743;SDS011;56303;52.160;-0.428;2023-03-12T12:48:16;16.47;;;5.17;;
20743;SDS011;56303;52.160;-0.428;2023-03-12T12:50:53;18.23;;;5.67;;
20743;SDS011;56303;52.160;-0.428;2023-03-12T12:53:26;15.60;;;4.43;;
20743;SDS011;56303;52.160;-0.428;2023-03-12T12:56:02;15.87;;;5.73;;
20743;SDS011;56303;52.160;-0.428;2023-03-12T13:01:34;15.87;;;5.63;;
20743;SDS011;56303;52.160;-0.428;2023-03-12T13:04:05;17.67;;;6.30;;
20743;SDS011;56303;52.160;-0.428;2023-03-12T13:09:20;16.30;;;5.73;;
20743;SDS011;56303;52.160;-0.428;2023-03-12T13:11:48;19.67;;;6.53;;
20743;SDS011;56303;52.160;-0.428;2023-03-12T13:14:21;18.87;;;6.07;;
20743;SDS011;56303;52.160;-0.428;2023-03-12T13:17:08;22.07;;;5.60;;
20743;SDS011;56303;52.160;-0.428;2023-03-12T13:19:44;24.10;;;6.77;;
20743;SDS011;56303;52.160;-0.428;2023-03-12T13:22:28;19.07;;;6.90;;
20743;SDS011;56303;52.160;-0.428;2023-03-12T13:25:12;16.73;;;5.33;;
20743;SDS011;56303;52.160;-0.428;2023-03-12T13:28:24;21.03;;;7.00;;
20743;SDS011;56303;52.160;-0.428;2023-03-12T13:30:58;23.37;;;6.27;;
20743;SDS011;56303;52.160;-0.428;2023-03-12T13:33:48;17.87;;;5.73;;
20743;SDS011;56303;52.160;-0.428;2023-03-12T13:38:53;16.13;;;5.70;;
20743;SDS011;56303;52.160;-0.428;2023-03-12T13:41:34;18.13;;;5.00;;
20743;SDS011;56303;52.160;-0.428;2023-03-12T13:55:23;19.00;;;6.60;;
20743;SDS011;56303;52.160;-0.428;2023-03-12T13:57:54;17.50;;;5.63;;
20743;SDS011;56303;52.160;-0.428;2023-03-12T14:03:08;21.33;;;5.87;;
20743;SDS011;56303;52.160;-0.428;2023-03-12T14:05:44;19.00;;;5.73;;
20743;SDS011;56303;52.160;-0.428;2023-03-12T14:08:29;16.50;;;5.17;;
20743;SDS011;56303;52.160;-0.428;2023-03-12T14:16:50;15.13;;;5.43;;
20743;SDS011;56303;52.160;-0.428;2023-03-12T14:19:23;15.80;;;4.87;;
20743;SDS011;56303;52.160;-0.428;2023-03-12T14:21:52;16.27;;;4.83;;
20743;SDS011;56303;52.160;-0.428;2023-03-12T14:24:22;15.30;;;5.27;;
20743;SDS011;56303;52.160;-0.428;2023-03-12T14:26:54;17.70;;;5.30;;
20743;SDS011;56303;52.160;-0.428;2023-03-12T14:32:05;20.77;;;6.30;;
20743;SDS011;56303;52.160;-0.428;2023-03-12T14:34:44;18.17;;;5.70;;
20743;SDS011;56303;52.160;-0.428;2023-03-12T14:37:16;15.17;;;5.33;;
20743;SDS011;56303;52.160;-0.428;2023-03-12T14:39:51;14.63;;;5.23;;
20743;SDS011;56303;52.160;-0.428;2023-03-12T14:42:31;18.03;;;5.23;;
20743;SDS011;56303;52.160;-0.428;2023-03-12T14:45:10;14.27;;;4.97;;
20743;SDS011;56303;52.160;-0.428;2023-03-12T14:47:44;15.97;;;5.53;;
20743;SDS011;56303;52.160;-0.428;2023-03-12T14:50:19;15.40;;;5.43;;
20743;SDS011;56303;52.160;-0.428;2023-03-12T14:52:48;16.20;;;5.43;;
20743;SDS011;56303;52.160;-0.428;2023-03-12T14:55:19;19.97;;;5.63;;
20743;SDS011;56303;52.160;-0.428;2023-03-12T14:57:48;15.90;;;5.73;;
20743;SDS011;56303;52.160;-0.428;2023-03-12T15:00:27;16.87;;;5.97;;
20743;SDS011;56303;52.160;-0.428;2023-03-12T15:02:55;15.43;;;5.23;;
20743;SDS011;56303;52.160;-0.428;2023-03-12T15:05:24;16.97;;;5.87;;
20743;SDS011;56303;52.160;-0.428;2023-03-12T15:07:52;18.43;;;6.47;;
20743;SDS011;56303;52.160;-0.428;2023-03-12T15:10:27;21.10;;;6.23;;
20743;SDS011;56303;52.160;-0.428;2023-03-12T15:12:55;15.97;;;6.00;;
20743;SDS011;56303;52.160;-0.428;2023-03-12T15:17:53;26.30;;;7.00;;
20743;SDS011;56303;52.160;-0.428;2023-03-12T15:20:21;17.80;;;5.37;;
20743;SDS011;56303;52.160;-0.428;2023-03-12T15:22:51;15.83;;;6.03;;
20743;SDS011;56303;52.160;-0.428;2023-03-12T15:28:04;13.30;;;6.30;;
20743;SDS011;56303;52.160;-0.428;2023-03-12T15:30:33;18.17;;;5.47;;
20743;SDS011;56303;52.160;-0.428;2023-03-12T15:35:35;20.93;;;5.53;;
20743;SDS011;56303;52.160;-0.428;2023-03-12T15:38:04;14.97;;;5.77;;
20743;SDS011;56303;52.160;-0.428;2023-03-12T15:40:38;17.50;;;5.27;;
20743;SDS011;56303;52.160;-0.428;2023-03-12T15:43:13;12.97;;;5.30;;
20743;SDS011;56303;52.160;-0.428;2023-03-12T15:45:43;19.47;;;5.40;;
20743;SDS011;56303;52.160;-0.428;2023-03-12T15:50:51;12.63;;;4.23;;
20743;SDS011;56303;52.160;-0.428;2023-03-12T15:58:33;12.13;;;4.00;;
20743;SDS011;56303;52.160;-0.428;2023-03-12T16:01:11;11.53;;;4.63;;
20743;SDS011;56303;52.160;-0.428;2023-03-12T16:03:43;15.50;;;3.60;;
20743;SDS011;56303;52.160;-0.428;2023-03-12T16:06:11;12.73;;;4.40;;
20743;SDS011;56303;52.160;-0.428;2023-03-12T16:08:47;13.07;;;3.60;;
20743;SDS011;56303;52.160;-0.428;2023-03-12T16:11:29;10.80;;;3.83;;
20743;SDS011;56303;52.160;-0.428;2023-03-12T16:14:01;16.37;;;5.07;;
20743;SDS011;56303;52.160;-0.428;2023-03-12T16:16:47;15.37;;;4.00;;
20743;SDS011;56303;52.160;-0.428;2023-03-12T16:19:15;17.20;;;4.33;;
20743;SDS011;56303;52.160;-0.428;2023-03-12T16:21:44;9.87;;;3.67;;
20743;SDS011;56303;52.160;-0.428;2023-03-12T16:24:11;13.50;;;3.63;;
20743;SDS011;56303;52.160;-0.428;2023-03-12T16:26:58;10.50;;;3.60;;
20743;SDS011;56303;52.160;-0.428;2023-03-12T16:29:27;14.73;;;3.90;;
20743;SDS011;56303;52.160;-0.428;2023-03-12T16:32:00;13.07;;;4.27;;
20743;SDS011;56303;52.160;-0.428;2023-03-12T16:34:34;12.70;;;3.70;;
20743;SDS011;56303;52.160;-0.428;2023-03-12T16:37:01;13.00;;;4.27;;
20743;SDS011;56303;52.160;-0.428;2023-03-12T16:39:28;14.43;;;4.37;;
20743;SDS011;56303;52.160;-0.428;2023-03-12T16:42:01;15.53;;;4.77;;
20743;SDS011;56303;52.160;-0.428;2023-03-12T16:44:31;11.47;;;4.23;;
20743;SDS011;56303;52.160;-0.428;2023-03-12T16:47:00;15.63;;;5.00;;
20743;SDS011;56303;52.160;-0.428;2023-03-12T16:49:27;17.07;;;5.10;;